sensor_id;sensor_type;location;lat;lon;timestamp;P1;durP1;ratioP1;P2;durP2;ratioP2
2390;SDS011;22957;50.824;4.360;2023-02-01T00:01:59;24.80;;;9.70;;
2390;SDS011;22957;50.824;4.360;2023-02-01T00:04:25;15.60;;;8.53;;
2390;SDS011;22957;50.824;4.360;2023-02-01T00:06:51;25.50;;;8.33;;
2390;SDS011;22957;50.824;4.360;2023-02-01T00:09:17;31.40;;;8.60;;
2390;SDS011;22957;50.824;4.360;2023-02-01T00:11:45;20.70;;;7.90;;
2390;SDS011;22957;50.824;4.360;2023-02-01T00:14:10;19.03;;;8.10;;
2390;SDS011;22957;50.824;4.360;2023-02-01T00:16:37;20.77;;;8.47;;
2390;SDS011;22957;50.824;4.360;2023-02-01T00:19:07;19.03;;;7.97;;
2390;SDS011;22957;50.824;4.360;2023-02-01T00:21:35;25.67;;;8.13;;
2390;SDS011;22957;50.824;4.360;2023-02-01T00:24:01;22.80;;;8.60;;
2390;SDS011;22957;50.824;4.360;2023-02-01T00:29:01;26.00;;;8.90;;
2390;SDS011;22957;50.824;4.360;2023-02-01T00:31:30;17.70;;;7.70;;
2390;SDS011;22957;50.824;4.360;2023-02-01T00:33:56;20.43;;;7.60;;
2390;SDS011;22957;50.824;4.360;2023-02-01T00:36:22;15.10;;;6.30;;
2390;SDS011;22957;50.824;4.360;2023-02-01T00:38:47;27.33;;;7.07;;
2390;SDS011;22957;50.824;4.360;2023-02-01T00:41:14;14.40;;;5.90;;
2390;SDS011;22957;50.824;4.360;2023-02-01T00:43:42;27.93;;;9.10;;
2390;SDS011;22957;50.824;4.360;2023-02-01T00:46:10;23.27;;;8.57;;
2390;SDS011;22957;50.824;4.360;2023-02-01T00:48:36;18.70;;;6.97;;
2390;SDS011;22957;50.824;4.360;2023-02-01T00:51:03;34.13;;;7.17;;
2390;SDS011;22957;50.824;4.360;2023-02-01T00:53:31;23.50;;;6.90;;
2390;SDS011;22957;50.824;4.360;2023-02-01T00:55:57;21.43;;;6.33;;
2390;SDS011;22957;50.824;4.360;2023-02-01T00:58:23;18.37;;;6.50;;
2390;SDS011;22957;50.824;4.360;2023-02-01T01:01:00;15.00;;;5.37;;
2390;SDS011;22957;50.824;4.360;2023-02-01T01:03:25;14.77;;;6.20;;
2390;SDS011;22957;50.824;4.360;2023-02-01T01:05:51;17.50;;;5.77;;
2390;SDS011;22957;50.824;4.360;2023-02-01T01:08:23;12.07;;;5.53;;
2390;SDS011;22957;50.824;4.360;2023-02-01T01:10:49;21.80;;;6.57;;
2390;SDS011;22957;50.824;4.360;2023-02-01T01:13:14;21.10;;;6.37;;
2390;SDS011;22957;50.824;4.360;2023-02-01T01:15:40;17.37;;;4.93;;
2390;SDS011;22957;50.824;4.360;2023-02-01T01:18:06;14.23;;;5.90;;
2390;SDS011;22957;50.824;4.360;2023-02-01T01:20:36;25.53;;;5.73;;
2390;SDS011;22957;50.824;4.360;2023-02-01T01:23:04;21.17;;;5.17;;
2390;SDS011;22957;50.824;4.360;2023-02-01T01:25:30;17.87;;;4.67;;
2390;SDS011;22957;50.824;4.360;2023-02-01T01:27:56;18.57;;;4.90;;
2390;SDS011;22957;50.824;4.360;2023-02-01T01:30:22;14.10;;;4.83;;
2390;SDS011;22957;50.824;4.360;2023-02-01T01:32:47;15.37;;;4.77;;
2390;SDS011;22957;50.824;4.360;2023-02-01T01:35:13;20.33;;;4.70;;
2390;SDS011;22957;50.824;4.360;2023-02-01T01:37:39;20.00;;;3.77;;
2390;SDS011;22957;50.824;4.360;2023-02-01T01:40:05;18.63;;;3.60;;
2390;SDS011;22957;50.824;4.360;2023-02-01T01:42:38;24.47;;;4.73;;
2390;SDS011;22957;50.824;4.360;2023-02-01T01:47:47;35.63;;;4.43;;
2390;SDS011;22957;50.824;4.360;2023-02-01T01:50:18;17.40;;;3.07;;
2390;SDS011;22957;50.824;4.360;2023-02-01T01:52:48;19.10;;;3.97;;
2390;SDS011;22957;50.824;4.360;2023-02-01T01:55:15;11.90;;;3.07;;
2390;SDS011;22957;50.824;4.360;2023-02-01T01:57:44;12.23;;;3.23;;
2390;SDS011;22957;50.824;4.360;2023-02-01T02:00:15;13.47;;;2.90;;
2390;SDS011;22957;50.824;4.360;2023-02-01T02:02:44;14.37;;;2.90;;
2390;SDS011;22957;50.824;4.360;2023-02-01T02:05:12;15.10;;;2.90;;
2390;SDS011;22957;50.824;4.360;2023-02-01T02:07:40;22.90;;;3.70;;
2390;SDS011;22957;50.824;4.360;2023-02-01T02:10:12;15.53;;;3.13;;
2390;SDS011;22957;50.824;4.360;2023-02-01T02:12:41;15.43;;;2.63;;
2390;SDS011;22957;50.824;4.360;2023-02-01T02:15:09;14.23;;;2.77;;
2390;SDS011;22957;50.824;4.360;2023-02-01T02:20:17;15.53;;;3.47;;
2390;SDS011;22957;50.824;4.360;2023-02-01T02:23:18;15.57;;;3.07;;
2390;SDS011;22957;50.824;4.360;2023-02-01T02:37:08;13.70;;;3.50;;
2390;SDS011;22957;50.824;4.360;2023-02-01T02:42:38;12.53;;;3.00;;
2390;SDS011;22957;50.824;4.360;2023-02-01T02:48:42;11.93;;;2.70;;
2390;SDS011;22957;50.824;4.360;2023-02-01T02:51:23;23.00;;;2.93;;
2390;SDS011;22957;50.824;4.360;2023-02-01T02:54:23;19.50;;;2.90;;
2390;SDS011;22957;50.824;4.360;2023-02-01T02:57:13;19.07;;;4.00;;
2390;SDS011;22957;50.824;4.360;2023-02-01T03:00:05;20.30;;;3.60;;
2390;SDS011;22957;50.824;4.360;2023-02-01T03:02:52;20.43;;;3.60;;
2390;SDS011;22957;50.824;4.360;2023-02-01T03:05:39;21.57;;;4.40;;
2390;SDS011;22957;50.824;4.360;2023-02-01T03:08:15;12.90;;;2.70;;
2390;SDS011;22957;50.824;4.360;2023-02-01T03:11:06;16.37;;;2.63;;
2390;SDS011;22957;50.824;4.360;2023-02-01T03:13:53;18.67;;;3.73;;
2390;SDS011;22957;50.824;4.360;2023-02-01T03:16:22;13.50;;;3.00;;
2390;SDS011;22957;50.824;4.360;2023-02-01T03:21:50;14.80;;;3.13;;
2390;SDS011;22957;50.824;4.360;2023-02-01T03:24:29;13.43;;;3.57;;
2390;SDS011;22957;50.824;4.360;2023-02-01T03:29:48;18.00;;;2.00;;
2390;SDS011;22957;50.824;4.360;2023-02-01T03:32:19;15.57;;;2.90;;
2390;SDS011;22957;50.824;4.360;2023-02-01T03:34:45;21.73;;;4.30;;
2390;SDS011;22957;50.824;4.360;2023-02-01T03:37:15;13.37;;;2.70;;
2390;SDS011;22957;50.824;4.360;2023-02-01T03:42:40;19.10;;;3.07;;
2390;SDS011;22957;50.824;4.360;2023-02-01T03:45:17;15.53;;;2.83;;
2390;SDS011;22957;50.824;4.360;2023-02-01T03:47:48;17.60;;;2.57;;
2390;SDS011;22957;50.824;4.360;2023-02-01T03:50:21;21.83;;;3.33;;
2390;SDS011;22957;50.824;4.360;2023-02-01T03:53:14;15.20;;;2.80;;
2390;SDS011;22957;50.824;4.360;2023-02-01T03:55:44;18.70;;;2.60;;
2390;SDS011;22957;50.824;4.360;2023-02-01T03:58:14;12.40;;;2.60;;
2390;SDS011;22957;50.824;4.360;2023-02-01T04:00:53;15.87;;;2.50;;
2390;SDS011;22957;50.824;4.360;2023-02-01T04:03:23;22.73;;;3.13;;
2390;SDS011;22957;50.824;4.360;2023-02-01T04:05:50;16.37;;;3.70;;
2390;SDS011;22957;50.824;4.360;2023-02-01T04:08:17;13.03;;;2.77;;
2390;SDS011;22957;50.824;4.360;2023-02-01T04:10:47;17.57;;;4.07;;
2390;SDS011;22957;50.824;4.360;2023-02-01T04:13:12;18.10;;;2.57;;
2390;SDS011;22957;50.824;4.360;2023-02-01T04:15:38;18.83;;;3.20;;
2390;SDS011;22957;50.824;4.360;2023-02-01T04:18:04;26.47;;;3.67;;
2390;SDS011;22957;50.824;4.360;2023-02-01T04:20:30;19.57;;;3.40;;
2390;SDS011;22957;50.824;4.360;2023-02-01T04:22:56;28.27;;;4.30;;
2390;SDS011;22957;50.824;4.360;2023-02-01T04:25:22;16.37;;;2.70;;
2390;SDS011;22957;50.824;4.360;2023-02-01T04:27:47;20.27;;;3.00;;
2390;SDS011;22957;50.824;4.360;2023-02-01T04:30:13;23.63;;;3.03;;
2390;SDS011;22957;50.824;4.360;2023-02-01T04:32:39;13.40;;;2.70;;
2390;SDS011;22957;50.824;4.360;2023-02-01T04:35:06;22.57;;;3.20;;
2390;SDS011;22957;50.824;4.360;2023-02-01T04:37:32;20.37;;;3.80;;
2390;SDS011;22957;50.824;4.360;2023-02-01T04:39:58;15.60;;;3.37;;
2390;SDS011;22957;50.824;4.360;2023-02-01T04:42:23;13.87;;;2.40;;
2390;SDS011;22957;50.824;4.360;2023-02-01T04:44:49;19.13;;;3.07;;
2390;SDS011;22957;50.824;4.360;2023-02-01T04:47:15;21.93;;;2.83;;
2390;SDS011;22957;50.824;4.360;2023-02-01T04:49:41;20.70;;;3.03;;
2390;SDS011;22957;50.824;4.360;2023-02-01T04:52:07;17.00;;;3.10;;
2390;SDS011;22957;50.824;4.360;2023-02-01T04:54:33;17.90;;;3.13;;
2390;SDS011;22957;50.824;4.360;2023-02-01T04:56:59;15.87;;;3.80;;
2390;SDS011;22957;50.824;4.360;2023-02-01T04:59:24;13.60;;;2.93;;
2390;SDS011;22957;50.824;4.360;2023-02-01T05:01:51;14.77;;;2.80;;
2390;SDS011;22957;50.824;4.360;2023-02-01T05:04:16;24.13;;;3.87;;
2390;SDS011;22957;50.824;4.360;2023-02-01T05:06:43;15.87;;;2.80;;
2390;SDS011;22957;50.824;4.360;2023-02-01T05:09:12;22.63;;;3.20;;
2390;SDS011;22957;50.824;4.360;2023-02-01T05:11:37;16.43;;;2.80;;
2390;SDS011;22957;50.824;4.360;2023-02-01T05:14:22;12.23;;;2.23;;
2390;SDS011;22957;50.824;4.360;2023-02-01T05:16:47;16.67;;;2.93;;
2390;SDS011;22957;50.824;4.360;2023-02-01T05:19:13;7.10;;;2.13;;
2390;SDS011;22957;50.824;4.360;2023-02-01T05:21:39;14.67;;;3.03;;
2390;SDS011;22957;50.824;4.360;2023-02-01T05:24:06;26.80;;;3.57;;
2390;SDS011;22957;50.824;4.360;2023-02-01T05:26:44;17.73;;;3.00;;
2390;SDS011;22957;50.824;4.360;2023-02-01T05:29:11;16.10;;;2.13;;
2390;SDS011;22957;50.824;4.360;2023-02-01T05:31:38;18.87;;;2.00;;
2390;SDS011;22957;50.824;4.360;2023-02-01T05:34:05;10.03;;;2.30;;
2390;SDS011;22957;50.824;4.360;2023-02-01T05:36:30;17.37;;;2.40;;
2390;SDS011;22957;50.824;4.360;2023-02-01T05:38:56;17.20;;;3.27;;
2390;SDS011;22957;50.824;4.360;2023-02-01T05:41:22;10.37;;;2.33;;
2390;SDS011;22957;50.824;4.360;2023-02-01T05:43:48;12.43;;;2.50;;
2390;SDS011;22957;50.824;4.360;2023-02-01T05:46:14;16.63;;;2.53;;
2390;SDS011;22957;50.824;4.360;2023-02-01T05:48:40;22.73;;;3.30;;
2390;SDS011;22957;50.824;4.360;2023-02-01T05:51:06;18.03;;;2.80;;
2390;SDS011;22957;50.824;4.360;2023-02-01T05:53:32;21.20;;;4.60;;
2390;SDS011;22957;50.824;4.360;2023-02-01T05:55:58;14.90;;;2.40;;
2390;SDS011;22957;50.824;4.360;2023-02-01T05:58:23;20.00;;;3.30;;
2390;SDS011;22957;50.824;4.360;2023-02-01T06:00:49;15.07;;;2.90;;
2390;SDS011;22957;50.824;4.360;2023-02-01T06:03:16;15.57;;;2.93;;
2390;SDS011;22957;50.824;4.360;2023-02-01T06:05:46;27.67;;;3.00;;
2390;SDS011;22957;50.824;4.360;2023-02-01T06:08:13;18.57;;;2.33;;
2390;SDS011;22957;50.824;4.360;2023-02-01T06:10:39;13.70;;;2.43;;
2390;SDS011;22957;50.824;4.360;2023-02-01T06:13:08;20.83;;;4.03;;
2390;SDS011;22957;50.824;4.360;2023-02-01T06:15:34;14.70;;;3.10;;
2390;SDS011;22957;50.824;4.360;2023-02-01T06:18:00;12.60;;;2.23;;
2390;SDS011;22957;50.824;4.360;2023-02-01T06:20:26;14.33;;;2.50;;
2390;SDS011;22957;50.824;4.360;2023-02-01T06:22:51;16.53;;;2.90;;
2390;SDS011;22957;50.824;4.360;2023-02-01T06:25:17;17.00;;;2.10;;
2390;SDS011;22957;50.824;4.360;2023-02-01T06:27:44;15.33;;;3.17;;
2390;SDS011;22957;50.824;4.360;2023-02-01T06:30:10;13.30;;;2.37;;
2390;SDS011;22957;50.824;4.360;2023-02-01T06:32:40;18.33;;;3.07;;
2390;SDS011;22957;50.824;4.360;2023-02-01T06:35:08;12.43;;;2.50;;
2390;SDS011;22957;50.824;4.360;2023-02-01T06:37:41;26.50;;;3.87;;
2390;SDS011;22957;50.824;4.360;2023-02-01T06:40:07;17.63;;;2.83;;
2390;SDS011;22957;50.824;4.360;2023-02-01T06:42:33;15.17;;;2.80;;
2390;SDS011;22957;50.824;4.360;2023-02-01T06:44:59;27.07;;;3.37;;
2390;SDS011;22957;50.824;4.360;2023-02-01T06:47:25;19.43;;;3.23;;
2390;SDS011;22957;50.824;4.360;2023-02-01T06:49:50;18.60;;;3.40;;
2390;SDS011;22957;50.824;4.360;2023-02-01T06:52:16;13.70;;;2.67;;
2390;SDS011;22957;50.824;4.360;2023-02-01T06:54:42;16.63;;;3.80;;
2390;SDS011;22957;50.824;4.360;2023-02-01T06:57:08;22.23;;;3.40;;
2390;SDS011;22957;50.824;4.360;2023-02-01T06:59:33;17.00;;;3.10;;
2390;SDS011;22957;50.824;4.360;2023-02-01T07:01:59;17.47;;;2.67;;
2390;SDS011;22957;50.824;4.360;2023-02-01T07:04:25;13.00;;;3.23;;
2390;SDS011;22957;50.824;4.360;2023-02-01T07:06:50;12.63;;;3.13;;
2390;SDS011;22957;50.824;4.360;2023-02-01T07:09:16;13.17;;;2.50;;
2390;SDS011;22957;50.824;4.360;2023-02-01T07:11:42;18.03;;;3.77;;
2390;SDS011;22957;50.824;4.360;2023-02-01T07:14:11;26.70;;;3.13;;
2390;SDS011;22957;50.824;4.360;2023-02-01T07:16:37;23.37;;;3.50;;
2390;SDS011;22957;50.824;4.360;2023-02-01T07:19:03;16.20;;;3.17;;
2390;SDS011;22957;50.824;4.360;2023-02-01T07:21:29;15.80;;;3.40;;
2390;SDS011;22957;50.824;4.360;2023-02-01T07:23:55;17.87;;;3.00;;
2390;SDS011;22957;50.824;4.360;2023-02-01T07:26:21;12.27;;;3.00;;
2390;SDS011;22957;50.824;4.360;2023-02-01T07:28:46;16.70;;;3.63;;
2390;SDS011;22957;50.824;4.360;2023-02-01T07:31:16;17.03;;;3.50;;
2390;SDS011;22957;50.824;4.360;2023-02-01T07:33:45;18.20;;;4.20;;
2390;SDS011;22957;50.824;4.360;2023-02-01T07:36:13;27.80;;;3.97;;
2390;SDS011;22957;50.824;4.360;2023-02-01T07:38:40;20.60;;;3.50;;
2390;SDS011;22957;50.824;4.360;2023-02-01T07:41:06;26.70;;;3.10;;
2390;SDS011;22957;50.824;4.360;2023-02-01T07:43:33;25.03;;;3.30;;
2390;SDS011;22957;50.824;4.360;2023-02-01T07:45:59;28.33;;;3.77;;
2390;SDS011;22957;50.824;4.360;2023-02-01T07:48:26;21.67;;;3.57;;
2390;SDS011;22957;50.824;4.360;2023-02-01T07:50:59;27.17;;;4.27;;
2390;SDS011;22957;50.824;4.360;2023-02-01T07:53:26;21.47;;;3.77;;
2390;SDS011;22957;50.824;4.360;2023-02-01T07:55:53;22.17;;;3.80;;
2390;SDS011;22957;50.824;4.360;2023-02-01T07:58:20;20.03;;;3.00;;
2390;SDS011;22957;50.824;4.360;2023-02-01T08:00:47;22.63;;;4.47;;
2390;SDS011;22957;50.824;4.360;2023-02-01T08:03:31;25.43;;;5.00;;
2390;SDS011;22957;50.824;4.360;2023-02-01T08:05:57;14.07;;;2.80;;
2390;SDS011;22957;50.824;4.360;2023-02-01T08:08:23;22.73;;;3.27;;
2390;SDS011;22957;50.824;4.360;2023-02-01T08:10:49;20.17;;;3.07;;
2390;SDS011;22957;50.824;4.360;2023-02-01T08:13:14;22.97;;;3.70;;
2390;SDS011;22957;50.824;4.360;2023-02-01T08:15:40;15.97;;;3.13;;
2390;SDS011;22957;50.824;4.360;2023-02-01T08:18:06;27.70;;;4.80;;
2390;SDS011;22957;50.824;4.360;2023-02-01T08:20:32;24.47;;;5.27;;
2390;SDS011;22957;50.824;4.360;2023-02-01T08:23:00;19.97;;;3.37;;
2390;SDS011;22957;50.824;4.360;2023-02-01T08:25:26;18.53;;;3.10;;
2390;SDS011;22957;50.824;4.360;2023-02-01T08:27:52;22.90;;;4.23;;
2390;SDS011;22957;50.824;4.360;2023-02-01T08:30:19;18.07;;;4.07;;
2390;SDS011;22957;50.824;4.360;2023-02-01T08:32:45;20.20;;;3.97;;
2390;SDS011;22957;50.824;4.360;2023-02-01T08:35:11;28.30;;;4.00;;
2390;SDS011;22957;50.824;4.360;2023-02-01T08:37:37;25.70;;;3.83;;
2390;SDS011;22957;50.824;4.360;2023-02-01T08:40:03;17.00;;;3.70;;
2390;SDS011;22957;50.824;4.360;2023-02-01T08:42:30;19.77;;;3.23;;
2390;SDS011;22957;50.824;4.360;2023-02-01T08:45:14;23.43;;;3.50;;
2390;SDS011;22957;50.824;4.360;2023-02-01T08:47:40;18.43;;;4.07;;
2390;SDS011;22957;50.824;4.360;2023-02-01T08:50:06;26.87;;;3.80;;
2390;SDS011;22957;50.824;4.360;2023-02-01T08:52:32;27.13;;;5.00;;
2390;SDS011;22957;50.824;4.360;2023-02-01T08:54:57;25.10;;;4.30;;
2390;SDS011;22957;50.824;4.360;2023-02-01T08:57:23;21.40;;;4.10;;
2390;SDS011;22957;50.824;4.360;2023-02-01T08:59:49;21.27;;;2.73;;
2390;SDS011;22957;50.824;4.360;2023-02-01T09:02:15;18.73;;;3.50;;
2390;SDS011;22957;50.824;4.360;2023-02-01T09:04:42;10.80;;;2.80;;
2390;SDS011;22957;50.824;4.360;2023-02-01T09:07:08;24.90;;;3.60;;
2390;SDS011;22957;50.824;4.360;2023-02-01T09:09:34;20.93;;;3.70;;
2390;SDS011;22957;50.824;4.360;2023-02-01T09:12:00;22.07;;;5.30;;
2390;SDS011;22957;50.824;4.360;2023-02-01T09:14:27;21.10;;;7.03;;
2390;SDS011;22957;50.824;4.360;2023-02-01T09:16:53;18.13;;;2.87;;
2390;SDS011;22957;50.824;4.360;2023-02-01T09:19:18;16.03;;;3.63;;
2390;SDS011;22957;50.824;4.360;2023-02-01T09:21:44;22.87;;;3.87;;
2390;SDS011;22957;50.824;4.360;2023-02-01T09:24:10;27.17;;;4.50;;
2390;SDS011;22957;50.824;4.360;2023-02-01T09:26:37;18.80;;;3.97;;
2390;SDS011;22957;50.824;4.360;2023-02-01T09:29:03;25.80;;;3.67;;
2390;SDS011;22957;50.824;4.360;2023-02-01T09:31:31;22.73;;;3.70;;
2390;SDS011;22957;50.824;4.360;2023-02-01T09:33:57;25.00;;;4.30;;
2390;SDS011;22957;50.824;4.360;2023-02-01T09:36:23;23.63;;;3.73;;
2390;SDS011;22957;50.824;4.360;2023-02-01T09:38:49;15.80;;;3.03;;
2390;SDS011;22957;50.824;4.360;2023-02-01T09:44:04;14.50;;;3.23;;
2390;SDS011;22957;50.824;4.360;2023-02-01T09:46:33;25.37;;;4.43;;
2390;SDS011;22957;50.824;4.360;2023-02-01T09:49:22;19.60;;;3.93;;
2390;SDS011;22957;50.824;4.360;2023-02-01T09:51:49;23.20;;;3.87;;
2390;SDS011;22957;50.824;4.360;2023-02-01T09:54:28;19.03;;;5.10;;
2390;SDS011;22957;50.824;4.360;2023-02-01T09:57:11;19.97;;;4.57;;
2390;SDS011;22957;50.824;4.360;2023-02-01T10:00:02;13.07;;;3.97;;
2390;SDS011;22957;50.824;4.360;2023-02-01T10:02:39;16.83;;;3.53;;
2390;SDS011;22957;50.824;4.360;2023-02-01T10:05:05;27.50;;;4.37;;
2390;SDS011;22957;50.824;4.360;2023-02-01T10:10:39;19.10;;;3.03;;
2390;SDS011;22957;50.824;4.360;2023-02-01T10:16:19;16.47;;;3.17;;
2390;SDS011;22957;50.824;4.360;2023-02-01T10:19:03;16.17;;;3.40;;
2390;SDS011;22957;50.824;4.360;2023-02-01T10:22:00;16.97;;;3.20;;
2390;SDS011;22957;50.824;4.360;2023-02-01T10:27:02;17.20;;;2.53;;
2390;SDS011;22957;50.824;4.360;2023-02-01T10:29:34;15.63;;;3.23;;
2390;SDS011;22957;50.824;4.360;2023-02-01T10:32:07;15.57;;;3.87;;
2390;SDS011;22957;50.824;4.360;2023-02-01T10:34:39;15.13;;;2.53;;
2390;SDS011;22957;50.824;4.360;2023-02-01T10:39:48;14.37;;;3.10;;
2390;SDS011;22957;50.824;4.360;2023-02-01T10:42:16;21.50;;;2.93;;
2390;SDS011;22957;50.824;4.360;2023-02-01T10:44:44;16.37;;;3.97;;
2390;SDS011;22957;50.824;4.360;2023-02-01T10:47:13;21.47;;;3.70;;
2390;SDS011;22957;50.824;4.360;2023-02-01T10:49:47;13.30;;;2.50;;
2390;SDS011;22957;50.824;4.360;2023-02-01T10:55:28;17.90;;;3.00;;
2390;SDS011;22957;50.824;4.360;2023-02-01T10:57:57;19.10;;;3.03;;
2390;SDS011;22957;50.824;4.360;2023-02-01T11:00:25;9.70;;;2.40;;
2390;SDS011;22957;50.824;4.360;2023-02-01T11:02:52;11.63;;;2.73;;
2390;SDS011;22957;50.824;4.360;2023-02-01T11:05:19;14.57;;;3.40;;
2390;SDS011;22957;50.824;4.360;2023-02-01T11:07:51;12.63;;;2.60;;
2390;SDS011;22957;50.824;4.360;2023-02-01T11:13:11;7.70;;;1.73;;
2390;SDS011;22957;50.824;4.360;2023-02-01T11:15:44;19.73;;;2.50;;
2390;SDS011;22957;50.824;4.360;2023-02-01T11:18:15;15.63;;;2.53;;
2390;SDS011;22957;50.824;4.360;2023-02-01T11:20:42;17.77;;;2.87;;
2390;SDS011;22957;50.824;4.360;2023-02-01T11:23:21;14.17;;;2.60;;
2390;SDS011;22957;50.824;4.360;2023-02-01T11:25:51;15.27;;;2.90;;
2390;SDS011;22957;50.824;4.360;2023-02-01T11:28:21;9.83;;;2.30;;
2390;SDS011;22957;50.824;4.360;2023-02-01T11:30:53;11.70;;;2.87;;
2390;SDS011;22957;50.824;4.360;2023-02-01T11:33:23;11.83;;;2.67;;
2390;SDS011;22957;50.824;4.360;2023-02-01T11:35:55;14.33;;;2.43;;
2390;SDS011;22957;50.824;4.360;2023-02-01T11:41:10;9.77;;;2.50;;
2390;SDS011;22957;50.824;4.360;2023-02-01T11:43:58;14.30;;;3.10;;
2390;SDS011;22957;50.824;4.360;2023-02-01T11:46:29;12.03;;;2.60;;
2390;SDS011;22957;50.824;4.360;2023-02-01T11:48:57;23.20;;;2.57;;
2390;SDS011;22957;50.824;4.360;2023-02-01T11:51:49;16.93;;;3.10;;
2390;SDS011;22957;50.824;4.360;2023-02-01T11:59:56;11.30;;;2.13;;
2390;SDS011;22957;50.824;4.360;2023-02-01T12:10:44;20.63;;;2.53;;
2390;SDS011;22957;50.824;4.360;2023-02-01T12:13:21;10.30;;;2.30;;
2390;SDS011;22957;50.824;4.360;2023-02-01T12:21:01;16.73;;;2.10;;
2390;SDS011;22957;50.824;4.360;2023-02-01T12:23:33;6.37;;;1.80;;
2390;SDS011;22957;50.824;4.360;2023-02-01T12:34:38;12.63;;;2.13;;
2390;SDS011;22957;50.824;4.360;2023-02-01T12:47:51;12.03;;;1.40;;
2390;SDS011;22957;50.824;4.360;2023-02-01T12:50:28;8.27;;;1.47;;
2390;SDS011;22957;50.824;4.360;2023-02-01T12:53:12;8.77;;;1.60;;
2390;SDS011;22957;50.824;4.360;2023-02-01T12:55:49;10.13;;;1.80;;
2390;SDS011;22957;50.824;4.360;2023-02-01T13:04:17;8.40;;;1.80;;
2390;SDS011;22957;50.824;4.360;2023-02-01T13:06:55;9.67;;;1.63;;
2390;SDS011;22957;50.824;4.360;2023-02-01T13:12:58;7.27;;;1.27;;
2390;SDS011;22957;50.824;4.360;2023-02-01T13:15:03;7.10;;;1.47;;
2390;SDS011;22957;50.824;4.360;2023-02-01T13:17:38;8.20;;;1.87;;
2390;SDS011;22957;50.824;4.360;2023-02-01T13:20:07;8.37;;;1.40;;
2390;SDS011;22957;50.824;4.360;2023-02-01T13:22:53;6.90;;;1.63;;
2390;SDS011;22957;50.824;4.360;2023-02-01T13:28:06;7.90;;;1.60;;
2390;SDS011;22957;50.824;4.360;2023-02-01T13:41:55;8.53;;;1.30;;
2390;SDS011;22957;50.824;4.360;2023-02-01T13:46:53;7.40;;;1.43;;
2390;SDS011;22957;50.824;4.360;2023-02-01T13:49:23;8.43;;;1.73;;
2390;SDS011;22957;50.824;4.360;2023-02-01T13:51:53;4.97;;;1.67;;
2390;SDS011;22957;50.824;4.360;2023-02-01T13:56:56;7.60;;;1.77;;
2390;SDS011;22957;50.824;4.360;2023-02-01T14:05:12;10.97;;;1.87;;
2390;SDS011;22957;50.824;4.360;2023-02-01T14:13:29;12.50;;;2.63;;
2390;SDS011;22957;50.824;4.360;2023-02-01T14:23:41;12.00;;;2.00;;
2390;SDS011;22957;50.824;4.360;2023-02-01T14:37:01;7.67;;;1.50;;
2390;SDS011;22957;50.824;4.360;2023-02-01T14:39:37;15.13;;;2.23;;
2390;SDS011;22957;50.824;4.360;2023-02-01T14:43:10;7.77;;;1.80;;
2390;SDS011;22957;50.824;4.360;2023-02-01T14:47:48;9.07;;;1.60;;
2390;SDS011;22957;50.824;4.360;2023-02-01T15:00:53;6.90;;;1.93;;
2390;SDS011;22957;50.824;4.360;2023-02-01T15:14:33;9.90;;;1.60;;
2390;SDS011;22957;50.824;4.360;2023-02-01T15:17:01;7.03;;;1.30;;
2390;SDS011;22957;50.824;4.360;2023-02-01T15:19:28;13.53;;;2.27;;
2390;SDS011;22957;50.824;4.360;2023-02-01T15:21:58;16.30;;;1.80;;
2390;SDS011;22957;50.824;4.360;2023-02-01T15:24:28;6.00;;;1.50;;
2390;SDS011;22957;50.824;4.360;2023-02-01T15:26:56;14.63;;;1.97;;
2390;SDS011;22957;50.824;4.360;2023-02-01T15:29:28;16.27;;;3.17;;
2390;SDS011;22957;50.824;4.360;2023-02-01T15:31:57;13.80;;;1.93;;
2390;SDS011;22957;50.824;4.360;2023-02-01T15:34:33;10.27;;;2.30;;
2390;SDS011;22957;50.824;4.360;2023-02-01T15:37:13;9.93;;;2.07;;
2390;SDS011;22957;50.824;4.360;2023-02-01T15:42:35;10.03;;;1.80;;
2390;SDS011;22957;50.824;4.360;2023-02-01T15:45:03;8.87;;;2.00;;
2390;SDS011;22957;50.824;4.360;2023-02-01T15:47:30;12.40;;;2.17;;
2390;SDS011;22957;50.824;4.360;2023-02-01T15:49:58;12.53;;;1.60;;
2390;SDS011;22957;50.824;4.360;2023-02-01T15:52:27;12.40;;;2.13;;
2390;SDS011;22957;50.824;4.360;2023-02-01T15:54:59;11.40;;;1.80;;
2390;SDS011;22957;50.824;4.360;2023-02-01T15:57:34;12.70;;;1.70;;
2390;SDS011;22957;50.824;4.360;2023-02-01T16:00:05;9.17;;;2.27;;
2390;SDS011;22957;50.824;4.360;2023-02-01T16:05:31;14.10;;;1.63;;
2390;SDS011;22957;50.824;4.360;2023-02-01T16:10:44;9.23;;;1.80;;
2390;SDS011;22957;50.824;4.360;2023-02-01T16:13:11;11.30;;;2.07;;
2390;SDS011;22957;50.824;4.360;2023-02-01T16:15:38;11.47;;;2.20;;
2390;SDS011;22957;50.824;4.360;2023-02-01T16:18:04;16.93;;;2.33;;
2390;SDS011;22957;50.824;4.360;2023-02-01T16:20:33;10.33;;;2.43;;
2390;SDS011;22957;50.824;4.360;2023-02-01T16:23:04;22.17;;;2.67;;
2390;SDS011;22957;50.824;4.360;2023-02-01T16:25:30;15.67;;;2.63;;
2390;SDS011;22957;50.824;4.360;2023-02-01T16:27:56;10.17;;;2.90;;
2390;SDS011;22957;50.824;4.360;2023-02-01T16:30:22;15.90;;;3.03;;
2390;SDS011;22957;50.824;4.360;2023-02-01T16:32:51;15.77;;;2.53;;
2390;SDS011;22957;50.824;4.360;2023-02-01T16:35:29;14.97;;;2.40;;
2390;SDS011;22957;50.824;4.360;2023-02-01T16:38:08;11.30;;;2.33;;
2390;SDS011;22957;50.824;4.360;2023-02-01T16:40:42;19.60;;;2.50;;
2390;SDS011;22957;50.824;4.360;2023-02-01T16:43:18;15.00;;;2.60;;
2390;SDS011;22957;50.824;4.360;2023-02-01T16:45:48;16.00;;;3.10;;
2390;SDS011;22957;50.824;4.360;2023-02-01T16:48:25;13.83;;;2.53;;
2390;SDS011;22957;50.824;4.360;2023-02-01T16:50:54;9.87;;;2.50;;
2390;SDS011;22957;50.824;4.360;2023-02-01T16:53:26;22.13;;;3.00;;
2390;SDS011;22957;50.824;4.360;2023-02-01T16:55:53;11.03;;;2.13;;
2390;SDS011;22957;50.824;4.360;2023-02-01T16:58:19;16.63;;;3.37;;
2390;SDS011;22957;50.824;4.360;2023-02-01T17:00:46;17.43;;;2.57;;
2390;SDS011;22957;50.824;4.360;2023-02-01T17:03:12;13.00;;;2.43;;
2390;SDS011;22957;50.824;4.360;2023-02-01T17:05:41;13.23;;;2.73;;
2390;SDS011;22957;50.824;4.360;2023-02-01T17:08:11;17.17;;;3.10;;
2390;SDS011;22957;50.824;4.360;2023-02-01T17:10:41;19.37;;;3.00;;
2390;SDS011;22957;50.824;4.360;2023-02-01T17:13:10;15.90;;;3.77;;
2390;SDS011;22957;50.824;4.360;2023-02-01T17:15:38;15.83;;;2.70;;
2390;SDS011;22957;50.824;4.360;2023-02-01T17:18:04;14.07;;;2.70;;
2390;SDS011;22957;50.824;4.360;2023-02-01T17:20:31;16.50;;;2.57;;
2390;SDS011;22957;50.824;4.360;2023-02-01T17:22:57;19.67;;;2.63;;
2390;SDS011;22957;50.824;4.360;2023-02-01T17:25:23;22.60;;;3.83;;
2390;SDS011;22957;50.824;4.360;2023-02-01T17:27:51;11.23;;;3.00;;
2390;SDS011;22957;50.824;4.360;2023-02-01T17:30:17;16.73;;;4.20;;
2390;SDS011;22957;50.824;4.360;2023-02-01T17:32:43;13.50;;;3.60;;
2390;SDS011;22957;50.824;4.360;2023-02-01T17:35:17;25.93;;;3.67;;
2390;SDS011;22957;50.824;4.360;2023-02-01T17:37:45;23.93;;;5.53;;
2390;SDS011;22957;50.824;4.360;2023-02-01T17:40:11;17.40;;;3.37;;
2390;SDS011;22957;50.824;4.360;2023-02-01T17:42:37;23.07;;;4.70;;
2390;SDS011;22957;50.824;4.360;2023-02-01T17:47:55;19.20;;;3.50;;
2390;SDS011;22957;50.824;4.360;2023-02-01T17:50:22;14.67;;;3.40;;
2390;SDS011;22957;50.824;4.360;2023-02-01T17:52:50;22.87;;;3.33;;
2390;SDS011;22957;50.824;4.360;2023-02-01T17:55:20;18.30;;;3.90;;
2390;SDS011;22957;50.824;4.360;2023-02-01T17:57:49;18.77;;;4.40;;
2390;SDS011;22957;50.824;4.360;2023-02-01T18:00:15;19.93;;;5.87;;
2390;SDS011;22957;50.824;4.360;2023-02-01T18:02:43;21.80;;;4.90;;
2390;SDS011;22957;50.824;4.360;2023-02-01T18:08:07;14.77;;;3.80;;
2390;SDS011;22957;50.824;4.360;2023-02-01T18:10:34;19.23;;;5.73;;
2390;SDS011;22957;50.824;4.360;2023-02-01T18:13:01;24.00;;;4.20;;
2390;SDS011;22957;50.824;4.360;2023-02-01T18:15:28;26.63;;;5.80;;